Time;durP1;ratioP1;P1;durP2;ratioP2;P2;SDS_P1;SDS_P2;PMS_P1;PMS_P2;Temp;Humidity;BMP_temperature;BMP_pressure;BME280_temperature;BME280_humidity;BME280_pressure;Samples;Min_cycle;Max_cycle;Signal;HPM_P1;HPM_P2
2021/08/28 00:01:09;;;;;;;1.20;0.73;;;;;;;16.21;75.68;100189.38;10283118;28;20132;-62
2021/08/28 00:06:11;;;;;;;1.05;0.80;;;;;;;16.29;75.69;100180.50;10288809;28;20042;-63
2021/08/28 00:11:12;;;;;;;1.30;1.17;;;;;;;16.24;75.69;100166.69;10285895;28;20100;-62
2021/08/28 00:16:14;;;;;;;1.55;1.45;;;;;;;15.91;76.20;100174.59;10286427;28;20097;-63
2021/08/28 00:21:15;;;;;;;1.13;0.90;;;;;;;16.00;77.47;100180.88;10287392;28;20046;-63
2021/08/28 00:26:17;;;;;;;2.35;1.48;;;;;;;16.07;77.19;100174.69;10281306;28;20136;-62
2021/08/28 00:31:18;;;;;;;1.42;1.30;;;;;;;15.85;78.09;100178.81;10294607;28;20763;-61
2021/08/28 00:36:19;;;;;;;2.35;1.10;;;;;;;15.67;79.18;100175.28;10299571;28;20054;-61
2021/08/28 00:41:21;;;;;;;1.70;1.50;;;;;;;15.80;78.40;100172.22;10295022;28;20504;-61
2021/08/28 00:46:22;;;;;;;1.63;1.33;;;;;;;15.85;78.33;100175.25;10293316;28;20133;-60
2021/08/28 00:51:24;;;;;;;1.88;1.38;;;;;;;15.93;77.80;100182.50;10286146;28;20056;-60
2021/08/28 00:56:25;;;;;;;1.70;1.60;;;;;;;15.90;77.73;100173.78;10291053;28;20086;-61
2021/08/28 01:01:32;;;;;;;2.13;1.70;;;;;;;15.92;78.19;100189.72;10287162;28;20081;-62
2021/08/28 01:06:48;;;;;;;1.88;1.20;;;;;;;15.90;77.69;100181.84;10297302;28;20128;-61
2021/08/28 01:11:56;;;;;;;2.15;1.73;;;;;;;15.95;78.09;100184.03;10297109;28;20065;-61
2021/08/28 01:17:06;;;;;;;2.28;1.80;;;;;;;15.94;77.58;100171.59;10302834;28;20124;-63
2021/08/28 01:22:11;;;;;;;3.28;1.70;;;;;;;15.93;77.81;100177.13;10287957;28;20605;-61
2021/08/28 01:27:27;;;;;;;3.10;2.20;;;;;;;15.88;77.97;100166.88;10303402;28;20066;-61
2021/08/28 01:32:28;;;;;;;2.72;1.63;;;;;;;15.81;77.95;100173.91;10291073;28;20093;-62
2021/08/28 01:37:30;;;;;;;1.42;1.27;;;;;;;15.74;78.25;100176.34;10283437;28;20173;-62
2021/08/28 01:42:32;;;;;;;2.10;2.00;;;;;;;15.72;78.34;100173.81;10283679;28;20081;-62
2021/08/28 01:47:35;;;;;;;2.72;1.70;;;;;;;15.72;77.92;100173.81;10294700;28;20130;-62
2021/08/28 01:52:37;;;;;;;3.08;2.45;;;;;;;15.70;78.19;100185.69;10289763;28;20158;-60
2021/08/28 01:57:39;;;;;;;2.28;1.42;;;;;;;15.71;78.40;100176.66;10304624;28;20117;-61
2021/08/28 02:02:40;;;;;;;2.72;1.50;;;;;;;15.65;77.90;100177.31;10287466;28;20166;-61
2021/08/28 02:08:04;;;;;;;2.67;1.40;;;;;;;15.61;78.24;100181.28;10291952;28;20047;-62
2021/08/28 02:13:14;;;;;;;3.00;2.30;;;;;;;15.57;78.39;100191.50;10287550;28;20078;-62
2021/08/28 02:18:26;;;;;;;2.97;1.85;;;;;;;15.55;78.23;100191.66;10289041;28;20057;-62
2021/08/28 02:23:48;;;;;;;2.42;2.17;;;;;;;15.49;78.31;100186.94;10287585;28;20061;-61
2021/08/28 02:28:56;;;;;;;1.73;1.63;;;;;;;15.42;78.74;100180.50;10283018;28;20054;-63
2021/08/28 02:33:57;;;;;;;2.50;1.70;;;;;;;15.38;78.57;100179.97;10289580;28;20101;-61
2021/08/28 02:39:01;;;;;;;2.25;1.75;;;;;;;15.42;78.54;100187.69;10306270;28;20118;-61
2021/08/28 02:44:04;;;;;;;2.20;2.00;;;;;;;15.36;78.73;100194.56;10300261;28;20081;-61
2021/08/28 02:49:07;;;;;;;2.60;1.87;;;;;;;15.34;78.64;100199.22;10292956;28;20050;-59
2021/08/28 02:54:12;;;;;;;2.20;2.00;;;;;;;15.18;79.06;100203.44;10301569;28;20527;-60
2021/08/28 02:59:18;;;;;;;1.80;1.63;;;;;;;15.24;78.82;100206.50;10284557;28;20508;-62
2021/08/28 03:04:23;;;;;;;4.63;1.90;;;;;;;15.20;78.82;100196.09;10285154;28;20072;-62
2021/08/28 03:09:25;;;;;;;4.03;1.80;;;;;;;15.16;78.46;100194.72;10294907;28;20046;-61
2021/08/28 03:14:26;;;;;;;2.60;2.40;;;;;;;15.13;78.54;100196.84;10295008;28;20593;-61
2021/08/28 03:19:29;;;;;;;2.20;2.00;;;;;;;15.11;78.49;100196.19;10295818;28;20070;-60
2021/08/28 03:24:31;;;;;;;1.77;1.60;;;;;;;15.08;78.74;100196.50;10290755;28;20452;-60
2021/08/28 03:29:35;;;;;;;2.08;1.45;;;;;;;15.05;78.63;100200.31;10295751;28;20096;-60
2021/08/28 03:34:38;;;;;;;3.10;2.00;;;;;;;15.06;78.34;100199.31;10300622;28;20492;-60
2021/08/28 03:39:40;;;;;;;2.10;1.90;;;;;;;15.03;78.35;100194.28;10293559;28;20074;-62
2021/08/28 03:44:41;;;;;;;2.85;1.92;;;;;;;14.98;78.36;100199.25;10304055;28;20089;-60
2021/08/28 03:49:43;;;;;;;2.97;1.98;;;;;;;14.99;78.34;100201.75;10297018;28;20085;-60
2021/08/28 03:54:44;;;;;;;2.33;2.13;;;;;;;14.96;78.30;100196.72;10297263;28;20082;-60
2021/08/28 03:59:46;;;;;;;2.67;2.47;;;;;;;14.94;78.58;100208.59;10291510;28;20082;-60
2021/08/28 04:04:47;;;;;;;2.85;2.65;;;;;;;14.94;78.29;100205.91;10294243;28;20597;-60
2021/08/28 04:09:49;;;;;;;2.72;2.53;;;;;;;14.95;78.11;100213.81;10302424;28;20074;-61
2021/08/28 04:14:50;;;;;;;2.67;2.47;;;;;;;14.94;78.37;100222.00;10297041;28;20050;-62
2021/08/28 04:19:51;;;;;;;2.60;2.40;;;;;;;14.90;78.30;100218.75;10295863;28;20054;-61
2021/08/28 04:24:53;;;;;;;2.28;2.08;;;;;;;14.96;78.51;100220.00;10295066;28;20077;-61
2021/08/28 04:29:54;;;;;;;2.47;2.20;;;;;;;15.00;78.52;100216.03;10323560;23;20687;-60
2021/08/28 04:34:56;;;;;;;2.20;2.00;;;;;;;15.02;78.03;100220.22;10329788;28;20298;-62
2021/08/28 04:39:57;;;;;;;3.00;2.28;;;;;;;15.06;77.82;100225.28;10331836;28;20070;-61
2021/08/28 04:44:58;;;;;;;5.07;2.67;;;;;;;15.07;78.12;100221.59;10330467;28;20123;-62
2021/08/28 04:50:00;;;;;;;2.97;2.35;;;;;;;15.01;78.24;100220.38;10333907;28;20108;-66
2021/08/28 04:55:01;;;;;;;3.17;2.85;;;;;;;15.00;77.84;100219.53;10330469;28;20152;-61
2021/08/28 05:00:03;;;;;;;2.97;2.78;;;;;;;15.05;77.57;100229.81;10334178;28;20497;-61
2021/08/28 05:05:06;;;;;;;3.22;2.40;;;;;;;15.04;77.79;100230.78;10334081;28;20193;-62
2021/08/28 05:10:08;;;;;;;2.95;2.75;;;;;;;15.05;77.64;100231.66;10333838;28;20135;-60
2021/08/28 05:15:10;;;;;;;3.22;2.50;;;;;;;15.09;77.54;100241.06;10325183;28;20078;-63
2021/08/28 05:20:11;;;;;;;2.97;2.30;;;;;;;15.14;77.73;100239.59;10335964;28;20638;-63
2021/08/28 05:25:13;;;;;;;3.15;2.60;;;;;;;15.19;77.83;100242.69;10324268;28;20605;-62
2021/08/28 05:30:14;;;;;;;3.45;2.70;;;;;;;15.25;77.96;100251.09;10326676;28;20053;-59
2021/08/28 05:35:16;;;;;;;3.63;2.22;;;;;;;15.35;77.75;100249.16;10323036;28;20037;-61
2021/08/28 05:40:19;;;;;;;2.75;2.50;;;;;;;15.45;77.95;100241.06;10338147;28;20526;-61
2021/08/28 05:45:21;;;;;;;2.87;2.47;;;;;;;15.52;77.20;100248.31;10329999;28;20074;-65
2021/08/28 05:50:22;;;;;;;2.92;2.60;;;;;;;15.55;76.67;100252.50;10326039;28;20259;-63
2021/08/28 05:55:24;;;;;;;3.25;3.05;;;;;;;15.55;77.74;100253.38;10316466;28;20600;-62
2021/08/28 06:00:25;;;;;;;2.90;2.60;;;;;;;15.58;76.65;100257.56;10318395;28;20136;-62
2021/08/28 06:05:27;;;;;;;3.75;2.50;;;;;;;15.57;76.64;100261.25;10316283;28;20096;-60
2021/08/28 06:10:28;;;;;;;2.83;2.58;;;;;;;15.58;76.55;100254.88;10311563;28;20149;-62
2021/08/28 06:15:29;;;;;;;3.50;3.05;;;;;;;15.60;76.29;100260.09;10320718;28;20050;-63
2021/08/28 06:20:31;;;;;;;3.17;2.75;;;;;;;15.55;77.08;100250.69;10311653;28;20129;-63
2021/08/28 06:25:32;;;;;;;3.65;3.42;;;;;;;15.59;77.43;100258.41;10316423;28;20070;-62
2021/08/28 06:30:34;;;;;;;3.38;3.08;;;;;;;15.63;78.19;100259.81;10317924;28;20225;-61
2021/08/28 06:35:36;;;;;;;3.20;2.90;;;;;;;15.61;78.59;100256.41;10327360;28;20049;-61
2021/08/28 06:40:37;;;;;;;3.22;3.00;;;;;;;15.71;78.05;100251.78;10313083;28;20058;-60
2021/08/28 06:45:39;;;;;;;3.97;3.28;;;;;;;15.71;78.99;100259.84;10316723;28;20053;-61
2021/08/28 06:50:40;;;;;;;4.88;3.22;;;;;;;15.70;79.08;100260.84;10320154;28;20441;-62
2021/08/28 06:55:42;;;;;;;3.50;3.13;;;;;;;15.72;78.88;100261.53;10317178;28;20087;-64
2021/08/28 07:00:44;;;;;;;3.45;3.15;;;;;;;15.77;79.82;100261.91;10317480;28;20092;-62
2021/08/28 07:05:46;;;;;;;3.75;3.20;;;;;;;15.78;79.31;100255.56;10316012;28;20108;-62
2021/08/28 07:10:47;;;;;;;3.83;3.38;;;;;;;15.78;79.84;100262.75;10316618;28;20495;-59
2021/08/28 07:15:48;;;;;;;4.68;3.08;;;;;;;15.84;80.28;100263.00;10314434;28;20144;-60
2021/08/28 07:20:50;;;;;;;4.45;3.53;;;;;;;15.92;79.96;100259.50;10312729;28;20127;-62
2021/08/28 07:25:51;;;;;;;3.90;3.45;;;;;;;16.01;79.51;100263.09;10310341;28;20056;-66
2021/08/28 07:30:53;;;;;;;3.90;3.60;;;;;;;15.97;77.83;100256.34;10309460;28;20461;-63
2021/08/28 07:35:55;;;;;;;4.45;3.45;;;;;;;15.96;79.69;100260.03;10310206;28;20061;-61
2021/08/28 07:40:56;;;;;;;4.45;3.42;;;;;;;16.22;79.06;100255.47;10312222;28;20046;-62
2021/08/28 07:45:59;;;;;;;5.18;3.80;;;;;;;16.38;77.35;100249.34;10306633;28;20073;-60
2021/08/28 07:51:00;;;;;;;4.22;3.70;;;;;;;16.59;77.48;100257.00;10315153;28;20101;-62
2021/08/28 07:56:02;;;;;;;4.50;3.85;;;;;;;16.85;76.11;100253.38;10311843;28;20077;-66
2021/08/28 08:01:03;;;;;;;3.90;3.60;;;;;;;17.13;74.84;100248.56;10302298;28;20137;-59
2021/08/28 08:06:05;;;;;;;3.65;3.30;;;;;;;17.29;73.46;100257.66;10323231;28;20549;-62
2021/08/28 08:11:07;;;;;;;4.97;3.22;;;;;;;17.76;71.59;100243.53;10312659;28;20793;-60
2021/08/28 08:16:09;;;;;;;3.38;3.00;;;;;;;17.11;72.78;100255.13;10310737;28;20064;-61
2021/08/28 08:21:10;;;;;;;3.38;3.10;;;;;;;17.76;71.43;100242.66;10311672;28;20046;-62
2021/08/28 08:26:12;;;;;;;3.67;3.38;;;;;;;18.17;69.80;100256.09;10309211;28;20169;-60
2021/08/28 08:31:14;;;;;;;3.33;3.03;;;;;;;18.26;69.33;100244.25;10313199;28;20042;-63
2021/08/28 08:36:15;;;;;;;2.97;2.67;;;;;;;18.27;68.75;100251.34;10310613;28;20373;-59
2021/08/28 08:41:18;;;;;;;3.35;3.05;;;;;;;18.55;68.24;100249.03;10311496;28;20057;-63
2021/08/28 08:46:22;;;;;;;2.70;2.35;;;;;;;19.08;66.41;100243.88;10305735;28;20061;-61
2021/08/28 08:51:24;;;;;;;3.05;2.28;;;;;;;20.05;63.99;100247.75;10306151;28;20078;-60
2021/08/28 08:56:26;;;;;;;1.30;1.20;;;;;;;20.05;61.81;100245.03;10312981;28;20136;-60
2021/08/28 09:01:27;;;;;;;1.55;1.40;;;;;;;19.94;60.60;100248.22;10310397;28;20163;-63
2021/08/28 09:06:29;;;;;;;1.35;1.25;;;;;;;19.98;60.38;100251.38;10307937;28;20069;-62
2021/08/28 09:11:31;;;;;;;1.30;1.00;;;;;;;20.11;60.28;100243.47;10308558;28;20078;-62
2021/08/28 09:16:33;;;;;;;1.27;1.10;;;;;;;20.48;59.45;100245.22;10305018;28;20802;-63
2021/08/28 09:21:34;;;;;;;1.10;1.00;;;;;;;20.92;57.80;100258.88;10327127;28;20062;-64
2021/08/28 09:26:41;;;;;;;2.03;1.15;;;;;;;21.12;55.64;100259.06;10312130;28;20102;-59
2021/08/28 09:31:46;;;;;;;1.27;1.15;;;;;;;20.52;55.91;100255.66;10307457;28;20160;-63
2021/08/28 09:37:02;;;;;;;1.15;0.80;;;;;;;21.39;55.56;100256.63;10309219;28;20096;-62
2021/08/28 09:42:04;;;;;;;1.08;0.70;;;;;;;22.36;52.28;100257.78;10307167;28;20096;-61
2021/08/28 09:47:10;;;;;;;2.30;1.47;;;;;;;21.95;53.46;100251.25;10303736;28;20804;-62
2021/08/28 09:52:22;;;;;;;1.42;1.30;;;;;;;21.18;54.87;100255.59;10304736;28;20089;-61
2021/08/28 09:57:28;;;;;;;2.45;1.00;;;;;;;21.65;52.75;100251.47;10303911;28;20056;-63
2021/08/28 10:02:30;;;;;;;1.02;0.93;;;;;;;22.20;49.55;100246.22;10306314;28;20390;-64
2021/08/28 10:07:32;;;;;;;1.05;0.65;;;;;;;22.76;48.34;100247.09;10316163;28;20145;-60
2021/08/28 10:12:35;;;;;;;2.10;0.65;;;;;;;22.58;47.24;100244.97;10315304;28;20382;-63
2021/08/28 10:17:40;;;;;;;0.77;0.50;;;;;;;22.89;46.92;100247.13;10329626;28;20057;-61
2021/08/28 10:22:43;;;;;;;0.82;0.40;;;;;;;23.10;45.80;100237.19;10332356;28;20053;-61
2021/08/28 10:27:45;;;;;;;1.00;0.55;;;;;;;22.22;46.53;100240.59;10312417;23;20124;-61
2021/08/28 10:32:48;;;;;;;1.03;0.60;;;;;;;21.33;48.25;100247.41;10335346;28;20050;-61
2021/08/28 10:37:50;;;;;;;1.40;1.10;;;;;;;20.68;50.76;100250.06;10332637;28;20057;-59
2021/08/28 10:42:53;;;;;;;1.10;0.70;;;;;;;19.75;54.66;100261.19;10333118;28;20153;-59
2021/08/28 10:47:56;;;;;;;;;;;;;;;19.30;55.70;100257.53;10326140;28;20392;-59
2021/08/28 10:52:59;;;;;;;2.72;1.60;;;;;;;18.33;60.00;100258.72;10327044;28;20412;-60
2021/08/28 10:58:14;;;;;;;0.90;0.70;;;;;;;18.26;62.47;100259.59;10327470;28;20161;-62
2021/08/28 11:03:23;;;;;;;1.52;1.13;;;;;;;17.92;61.18;100260.69;10336770;28;20081;-60
2021/08/28 11:08:25;;;;;;;1.25;0.65;;;;;;;17.89;61.18;100253.78;10331376;28;20052;-59
2021/08/28 11:14:14;;;;;;;0.70;0.57;;;;;;;18.14;59.49;100264.50;10339698;28;20144;-60
2021/08/28 11:19:24;;;;;;;0.70;0.70;;;;;;;17.68;60.47;100262.38;10340304;28;20080;-60
2021/08/28 11:24:27;;;;;;;1.58;0.85;;;;;;;17.95;59.23;100253.09;10340709;28;20124;-60
2021/08/28 11:29:28;;;;;;;0.70;0.30;;;;;;;18.21;58.39;100257.44;10333541;28;20477;-61
2021/08/28 11:34:30;;;;;;;0.90;0.73;;;;;;;18.86;57.09;100258.16;10341084;28;20529;-60
2021/08/28 11:39:43;;;;;;;2.22;1.25;;;;;;;20.09;52.92;100251.75;10335866;28;20435;-62
2021/08/28 11:44:52;;;;;;;2.33;1.50;;;;;;;21.33;49.56;100250.97;10332251;28;20049;-60
2021/08/28 11:49:56;;;;;;;1.25;0.65;;;;;;;22.25;47.58;100238.31;10328729;28;20045;-60
2021/08/28 11:55:00;;;;;;;0.43;0.43;;;;;;;23.90;43.94;100241.81;10338286;28;20087;-60
2021/08/28 12:00:07;;;;;;;2.70;0.70;;;;;;;29.03;32.95;100246.88;10331411;28;20103;-61
2021/08/28 12:05:11;;;;;;;0.73;0.30;;;;;;;34.95;25.42;100241.47;10354485;28;20072;-61
2021/08/28 12:10:14;;;;;;;0.40;0.40;;;;;;;35.23;23.98;100235.16;10337796;28;20128;-60
2021/08/28 12:15:15;;;;;;;0.52;0.30;;;;;;;32.53;26.32;100236.22;10336561;28;20120;-61
2021/08/28 12:20:24;;;;;;;;;;;;;;;32.33;26.15;100237.81;10332458;28;20525;-61
2021/08/28 12:25:26;;;;;;;0.30;0.20;;;;;;;30.30;28.80;100240.94;10352893;28;20107;-61
2021/08/28 12:30:29;;;;;;;0.68;0.30;;;;;;;27.81;33.31;100233.09;10336561;28;20125;-62
2021/08/28 12:35:30;;;;;;;0.32;0.13;;;;;;;25.72;36.52;100236.06;10335391;28;20077;-61
2021/08/28 12:40:32;;;;;;;0.67;0.20;;;;;;;24.43;39.69;100243.56;10342168;28;21532;-61
2021/08/28 12:45:34;;;;;;;0.65;0.30;;;;;;;23.14;41.46;100243.88;10356576;28;20499;-61
2021/08/28 12:50:36;;;;;;;0.45;0.30;;;;;;;23.03;42.59;100239.00;10337232;28;20081;-61
2021/08/28 12:55:37;;;;;;;0.70;0.70;;;;;;;22.92;43.89;100244.03;10343353;28;20080;-61
2021/08/28 13:00:45;;;;;;;1.08;0.88;;;;;;;23.17;44.42;100240.75;10341244;28;20100;-61
2021/08/28 13:06:22;;;;;;;1.13;0.65;;;;;;;23.22;43.56;100240.13;10350027;28;20383;-61
2021/08/28 13:11:25;;;;;;;0.45;0.30;;;;;;;22.96;43.92;100241.72;10334952;28;20060;-61
2021/08/28 13:16:27;;;;;;;0.95;0.47;;;;;;;22.44;44.36;100235.09;10338640;28;20041;-62
2021/08/28 13:21:36;;;;;;;0.50;0.35;;;;;;;21.86;45.66;100234.31;10335628;28;20084;-63
2021/08/28 13:27:00;;;;;;;1.45;0.90;;;;;;;21.77;46.84;100243.63;10332815;28;20196;-61
2021/08/28 13:32:06;;;;;;;1.23;0.30;;;;;;;22.09;46.37;100230.50;10333825;28;20145;-59
2021/08/28 13:37:09;;;;;;;0.60;0.47;;;;;;;22.09;45.73;100235.91;10354801;28;20098;-62
2021/08/28 13:42:21;;;;;;;0.50;0.30;;;;;;;21.58;47.51;100233.50;10344455;28;20479;-62
2021/08/28 13:47:25;;;;;;;0.57;0.37;;;;;;;22.18;46.92;100234.72;10355403;28;20056;-61
2021/08/28 13:52:26;;;;;;;0.60;0.40;;;;;;;22.24;46.21;100222.25;10336635;28;20331;-60
2021/08/28 13:57:28;;;;;;;0.70;0.40;;;;;;;21.39;48.17;100229.53;10345800;28;20145;-61
2021/08/28 14:02:29;;;;;;;0.80;0.60;;;;;;;21.43;48.43;100231.66;10341800;28;20053;-62
2021/08/28 14:07:31;;;;;;;1.08;0.63;;;;;;;22.22;47.19;100218.91;10342559;28;20065;-63
2021/08/28 14:12:32;;;;;;;0.45;0.30;;;;;;;22.19;46.28;100225.56;10338634;28;20136;-62
2021/08/28 14:17:34;;;;;;;0.88;0.60;;;;;;;21.87;47.33;100206.19;10365246;28;20050;-61
2021/08/28 14:22:36;;;;;;;0.45;0.30;;;;;;;21.76;47.50;100225.69;10366342;28;20077;-60
2021/08/28 14:27:38;;;;;;;0.63;0.25;;;;;;;21.88;46.78;100215.16;10344956;28;20046;-61
2021/08/28 14:32:40;;;;;;;0.57;0.20;;;;;;;21.82;46.38;100199.69;10343361;28;20100;-61
2021/08/28 14:37:41;;;;;;;1.02;0.20;;;;;;;21.97;45.46;100202.28;10345597;28;20447;-61
2021/08/28 14:42:43;;;;;;;0.25;0.20;;;;;;;22.07;46.00;100200.06;10365146;28;20551;-61
2021/08/28 14:47:44;;;;;;;0.90;0.10;;;;;;;22.19;45.24;100203.88;10349559;28;20156;-61
2021/08/28 14:52:46;;;;;;;0.50;0.20;;;;;;;22.15;45.35;100197.16;10346726;28;20157;-61
2021/08/28 14:57:47;;;;;;;0.60;0.30;;;;;;;22.14;45.44;100206.31;10348417;28;20084;-63
2021/08/28 15:02:49;;;;;;;1.52;0.22;;;;;;;21.96;46.05;100200.59;10342705;28;20140;-63
2021/08/28 15:07:51;;;;;;;0.60;0.30;;;;;;;22.08;46.05;100215.25;10342959;28;20111;-61
2021/08/28 15:12:52;;;;;;;0.57;0.30;;;;;;;22.22;46.58;100214.31;10343336;28;20157;-57
2021/08/28 15:17:54;;;;;;;0.30;0.20;;;;;;;22.07;49.08;100216.31;10349242;28;20041;-56
2021/08/28 15:22:56;;;;;;;1.10;0.88;;;;;;;22.02;48.06;100213.34;10329571;28;20049;-56
2021/08/28 15:27:57;;;;;;;1.40;0.40;;;;;;;21.95;48.15;100212.47;10336325;28;20056;-55
2021/08/28 15:32:59;;;;;;;1.05;0.30;;;;;;;21.97;49.25;100221.25;10340028;28;20223;-55
2021/08/28 15:38:00;;;;;;;1.30;0.55;;;;;;;21.87;48.41;100205.34;10340916;28;20136;-55
2021/08/28 15:43:02;;;;;;;1.25;0.40;;;;;;;21.73;48.29;100220.69;10334613;28;20052;-56
2021/08/28 15:48:03;;;;;;;0.98;0.60;;;;;;;21.36;48.97;100218.09;10352646;28;20100;-55
2021/08/28 15:53:05;;;;;;;0.60;0.40;;;;;;;21.22;48.74;100210.03;10328029;28;20873;-55
2021/08/28 15:58:06;;;;;;;0.55;0.40;;;;;;;21.21;49.12;100216.47;10329592;28;20049;-58
2021/08/28 16:03:07;;;;;;;1.67;0.47;;;;;;;21.19;48.66;100214.78;10337274;28;20056;-55
2021/08/28 16:08:10;;;;;;;0.30;0.20;;;;;;;21.21;48.18;100220.00;10343566;28;20462;-53
2021/08/28 16:13:14;;;;;;;0.30;0.30;;;;;;;21.32;48.33;100221.38;10334060;28;20055;-54
2021/08/28 16:18:15;;;;;;;0.60;0.40;;;;;;;21.35;48.51;100229.09;10342030;28;20053;-55
2021/08/28 16:23:17;;;;;;;0.88;0.50;;;;;;;21.20;48.90;100221.06;10335817;28;20206;-55
2021/08/28 16:28:19;;;;;;;1.00;0.70;;;;;;;20.78;49.94;100212.72;10353060;28;20124;-59
2021/08/28 16:33:21;;;;;;;1.40;0.50;;;;;;;20.72;50.18;100221.59;10368228;22;20060;-60
2021/08/28 16:38:22;;;;;;;0.50;0.40;;;;;;;20.47;50.67;100204.84;10339246;28;20133;-54
2021/08/28 16:43:24;;;;;;;1.15;0.47;;;;;;;20.42;51.80;100218.94;10358708;28;20137;-58
2021/08/28 16:48:25;;;;;;;0.50;0.43;;;;;;;20.42;52.07;100215.41;10335190;28;20046;-53
2021/08/28 16:53:27;;;;;;;1.50;0.57;;;;;;;20.22;51.78;100207.03;10337516;28;20061;-57
2021/08/28 16:58:28;;;;;;;0.85;0.40;;;;;;;20.16;52.56;100202.38;10330035;28;20072;-56
2021/08/28 17:03:29;;;;;;;0.80;0.50;;;;;;;20.17;52.72;100225.66;10330247;28;20054;-54
2021/08/28 17:08:31;;;;;;;1.00;0.60;;;;;;;20.11;53.69;100228.09;10340498;28;20167;-53
2021/08/28 17:13:32;;;;;;;0.93;0.50;;;;;;;20.05;54.11;100225.31;10321473;28;20137;-58
2021/08/28 17:18:34;;;;;;;1.10;0.65;;;;;;;19.84;54.58;100220.63;10336384;28;20235;-58
2021/08/28 17:23:35;;;;;;;0.75;0.50;;;;;;;19.75;55.29;100233.34;10331993;28;20199;-57
2021/08/28 17:28:37;;;;;;;1.30;0.60;;;;;;;19.64;55.34;100213.03;10333024;28;20089;-57
2021/08/28 17:33:39;;;;;;;0.98;0.43;;;;;;;19.70;55.54;100235.78;10334208;28;20129;-57
2021/08/28 17:38:40;;;;;;;1.55;0.60;;;;;;;19.59;56.12;100237.03;10329388;28;20528;-56
2021/08/28 17:43:41;;;;;;;0.82;0.63;;;;;;;19.57;55.95;100237.22;10335916;28;20044;-54
2021/08/28 17:48:43;;;;;;;1.45;0.73;;;;;;;19.21;56.55;100237.03;10334150;28;20060;-53
2021/08/28 17:53:44;;;;;;;1.23;0.65;;;;;;;19.13;58.24;100237.09;10335892;28;20050;-53
2021/08/28 17:58:46;;;;;;;1.35;1.00;;;;;;;19.24;57.97;100244.75;10317991;28;20164;-54
2021/08/28 18:03:47;;;;;;;1.23;0.82;;;;;;;19.25;57.69;100241.03;10331126;28;20054;-56
2021/08/28 18:08:53;;;;;;;0.90;0.80;;;;;;;18.84;58.44;100252.94;10323287;28;20046;-55
2021/08/28 18:13:54;;;;;;;1.02;0.82;;;;;;;18.84;59.16;100257.47;10329529;28;20060;-53
2021/08/28 18:18:56;;;;;;;1.90;1.40;;;;;;;18.89;60.27;100253.25;10327701;28;20127;-54
2021/08/28 18:23:58;;;;;;;2.97;2.55;;;;;;;18.70;60.54;100254.50;10325845;28;20057;-56
2021/08/28 18:29:00;;;;;;;2.95;2.15;;;;;;;18.58;60.62;100252.38;10336519;28;20474;-53
2021/08/28 18:34:02;;;;;;;3.40;1.90;;;;;;;18.28;61.19;100261.09;10334493;28;20911;-55
2021/08/28 18:39:04;;;;;;;3.50;2.30;;;;;;;18.32;62.09;100258.91;10334700;28;20050;-54
2021/08/28 18:44:05;;;;;;;2.05;1.85;;;;;;;18.08;62.29;100249.03;10335728;28;20209;-54
2021/08/28 18:49:07;;;;;;;2.30;1.83;;;;;;;18.20;62.76;100274.59;10329259;28;20045;-55
2021/08/28 18:54:08;;;;;;;3.03;1.80;;;;;;;18.27;62.38;100272.91;10335492;28;20053;-58
2021/08/28 18:59:10;;;;;;;2.88;1.90;;;;;;;18.13;62.72;100277.13;10325744;28;20053;-55
2021/08/28 19:04:11;;;;;;;3.33;1.73;;;;;;;18.17;63.11;100283.03;10349756;28;20103;-54
2021/08/28 19:09:13;;;;;;;1.25;1.05;;;;;;;18.15;62.77;100285.03;10330992;28;20128;-55
2021/08/28 19:14:15;;;;;;;2.70;2.45;;;;;;;18.09;63.74;100280.34;10324081;28;20054;-54
2021/08/28 19:19:17;;;;;;;3.47;3.17;;;;;;;18.18;63.80;100290.09;10332308;28;20056;-54
2021/08/28 19:24:18;;;;;;;3.58;3.03;;;;;;;18.16;64.39;100292.09;10330755;28;20045;-58
2021/08/28 19:29:20;;;;;;;2.67;2.47;;;;;;;18.08;65.00;100286.75;10345574;28;20135;-56
2021/08/28 19:34:23;;;;;;;2.63;2.35;;;;;;;18.04;64.78;100283.53;10324434;28;20045;-58
2021/08/28 19:39:26;;;;;;;3.63;2.58;;;;;;;17.99;64.80;100292.13;10327958;28;20127;-57
2021/08/28 19:44:27;;;;;;;3.70;2.30;;;;;;;17.99;65.12;100270.59;10330283;28;20076;-55
2021/08/28 19:49:28;;;;;;;2.38;2.00;;;;;;;18.07;64.36;100287.75;10332373;28;20538;-53
2021/08/28 19:54:30;;;;;;;3.58;1.95;;;;;;;18.04;65.23;100290.78;10329488;28;20042;-57
2021/08/28 19:59:31;;;;;;;3.05;2.22;;;;;;;17.81;64.54;100300.38;10326954;28;20055;-55
2021/08/28 20:04:33;;;;;;;2.85;1.50;;;;;;;17.82;66.01;100302.06;10329762;28;20148;-55
2021/08/28 20:09:34;;;;;;;2.65;1.63;;;;;;;18.02;65.18;100293.66;10330216;28;20133;-57
2021/08/28 20:14:36;;;;;;;2.63;1.77;;;;;;;17.93;65.82;100303.59;10329300;28;20046;-54
2021/08/28 20:19:37;;;;;;;2.53;1.88;;;;;;;17.98;67.35;100303.09;10307641;28;20076;-56
2021/08/28 20:24:39;;;;;;;2.15;1.55;;;;;;;17.97;67.94;100288.78;10322277;28;20058;-53
2021/08/28 20:29:40;;;;;;;2.17;1.63;;;;;;;17.96;68.94;100297.88;10332456;28;20053;-58
2021/08/28 20:34:41;;;;;;;2.20;2.00;;;;;;;17.83;69.36;100297.50;10327412;28;20112;-58
2021/08/28 20:39:43;;;;;;;2.35;1.80;;;;;;;17.91;69.34;100297.56;10332882;28;20052;-57
2021/08/28 20:44:44;;;;;;;2.35;1.85;;;;;;;17.87;70.62;100296.16;10325448;28;20686;-58
2021/08/28 20:49:46;;;;;;;3.22;1.90;;;;;;;17.88;71.52;100294.31;10335896;28;20054;-58
2021/08/28 20:54:47;;;;;;;6.15;4.10;;;;;;;17.86;73.05;100299.88;10321647;28;20185;-56
2021/08/28 20:59:49;;;;;;;7.57;4.75;;;;;;;17.78;73.58;100297.19;10316860;28;20411;-56
2021/08/28 21:04:50;;;;;;;3.40;2.75;;;;;;;17.91;74.15;100305.63;10334483;28;20772;-55
2021/08/28 21:09:52;;;;;;;3.35;2.80;;;;;;;17.90;73.53;100293.16;10330869;28;20061;-61
2021/08/28 21:14:53;;;;;;;2.50;2.30;;;;;;;17.87;74.16;100304.25;10329910;28;20129;-56
2021/08/28 21:19:55;;;;;;;3.47;2.90;;;;;;;17.88;75.08;100316.72;10327774;28;20555;-58
2021/08/28 21:24:56;;;;;;;4.05;3.20;;;;;;;17.89;77.46;100318.41;10331596;28;20465;-56
2021/08/28 21:29:58;;;;;;;4.00;2.90;;;;;;;17.85;77.95;100309.81;10330455;28;20128;-56
2021/08/28 21:34:59;;;;;;;3.33;2.55;;;;;;;17.84;77.91;100315.38;10324408;28;20046;-58
2021/08/28 21:40:01;;;;;;;3.35;2.17;;;;;;;17.81;77.88;100307.63;10328583;28;20149;-56
2021/08/28 21:45:07;;;;;;;3.17;2.20;;;;;;;17.81;78.32;100315.69;10324903;28;20665;-58
2021/08/28 21:50:09;;;;;;;2.33;2.13;;;;;;;17.79;78.29;100307.78;10327902;28;20085;-56
2021/08/28 21:55:11;;;;;;;4.18;2.60;;;;;;;17.80;77.90;100311.31;10321453;28;20049;-56
2021/08/28 22:00:23;;;;;;;3.53;2.50;;;;;;;17.75;78.60;100311.81;10328438;28;20052;-56
2021/08/28 22:05:24;;;;;;;3.95;2.65;;;;;;;17.67;79.09;100296.53;10333688;28;20060;-60
2021/08/28 22:10:26;;;;;;;3.53;2.45;;;;;;;17.73;79.52;100308.47;10333309;28;20165;-57
2021/08/28 22:15:28;;;;;;;2.53;2.33;;;;;;;17.66;79.64;100299.38;10331794;28;20053;-56
2021/08/28 22:20:30;;;;;;;3.17;2.10;;;;;;;17.59;78.69;100307.28;10338651;28;20049;-57
2021/08/28 22:25:31;;;;;;;3.35;2.15;;;;;;;17.35;81.22;100288.44;10332551;28;20491;-53
2021/08/28 22:30:33;;;;;;;2.67;2.40;;;;;;;17.44;80.73;100298.19;10352776;22;20037;-58
2021/08/28 22:35:34;;;;;;;3.72;2.13;;;;;;;17.46;80.91;100296.19;10371199;28;20128;-57
2021/08/28 22:40:38;;;;;;;3.17;2.42;;;;;;;17.43;81.50;100291.97;10370003;28;20196;-64
2021/08/28 22:45:39;;;;;;;3.85;2.10;;;;;;;17.42;81.54;100294.84;10367176;28;20069;-58
2021/08/28 22:50:41;;;;;;;3.08;2.78;;;;;;;17.41;82.13;100285.91;10374250;28;20123;-62
2021/08/28 22:55:42;;;;;;;3.92;2.88;;;;;;;17.42;81.52;100295.66;10380448;28;20069;-60
2021/08/28 23:00:43;;;;;;;6.05;4.55;;;;;;;17.36;81.66;100288.28;10380272;28;20129;-63
2021/08/28 23:05:45;;;;;;;3.53;2.90;;;;;;;17.35;80.86;100291.13;10380304;28;20122;-61
2021/08/28 23:10:46;;;;;;;3.17;2.38;;;;;;;17.26;81.60;100288.44;10385199;28;20609;-60